Time;durP1;ratioP1;P1;durP2;ratioP2;P2;SDS_P1;SDS_P2;PMS_P1;PMS_P2;Temp;Humidity;BMP_temperature;BMP_pressure;BME280_temperature;BME280_humidity;BME280_pressure;Samples;Min_cycle;Max_cycle;Signal;HPM_P1;HPM_P2
2022/08/23 00:01:35;;;;;;;8.67;3.97;;;19.40;99.90;;;;;;5075090;28;20228;-58
2022/08/23 00:04:10;;;;;;;5.97;4.63;;;19.40;99.90;;;;;;5075257;28;20278;-58
2022/08/23 00:06:37;;;;;;;7.80;4.20;;;19.40;99.90;;;;;;5074678;28;20701;-59
2022/08/23 00:09:05;;;;;;;7.27;4.83;;;19.40;99.90;;;;;;5075101;28;20209;-57
2022/08/23 00:11:34;;;;;;;7.13;4.40;;;19.40;99.90;;;;;;5074896;28;20258;-58
2022/08/23 00:14:06;;;;;;;6.90;4.87;;;19.40;99.90;;;;;;5075017;28;20286;-58
2022/08/23 00:16:35;;;;;;;6.17;4.27;;;19.40;99.90;;;;;;5074811;28;20594;-58
2022/08/23 00:19:02;;;;;;;5.77;3.93;;;19.40;99.90;;;;;;5074854;28;20205;-58
2022/08/23 00:21:29;;;;;;;7.43;4.10;;;19.40;99.90;;;;;;5074699;28;20703;-59
2022/08/23 00:23:56;;;;;;;7.67;4.20;;;19.40;99.90;;;;;;5074608;28;20228;-58
2022/08/23 00:26:22;;;;;;;5.77;4.03;;;19.40;99.90;;;;;;5074670;28;20781;-59
2022/08/23 00:28:49;;;;;;;5.10;3.90;;;19.40;99.90;;;;;;5074883;28;20282;-59
2022/08/23 00:31:17;;;;;;;5.93;4.10;;;19.40;99.90;;;;;;5074580;28;20204;-57
2022/08/23 00:33:45;;;;;;;6.83;4.30;;;19.40;99.90;;;;;;5074509;28;20228;-58
2022/08/23 00:36:12;;;;;;;6.40;4.10;;;19.40;99.90;;;;;;5074342;28;20205;-58
2022/08/23 00:38:38;;;;;;;8.17;4.50;;;19.40;99.90;;;;;;5074429;28;20251;-58
2022/08/23 00:41:05;;;;;;;9.13;3.90;;;19.30;99.90;;;;;;5074466;28;20652;-58
2022/08/23 00:49:17;;;;;;;9.87;5.13;;;19.30;99.90;;;;;;5074381;28;20184;-57
2022/08/23 00:51:50;;;;;;;7.00;5.60;;;19.20;99.90;;;;;;5074324;28;20233;-59
2022/08/23 00:54:18;;;;;;;9.23;5.60;;;19.20;99.90;;;;;;5074287;28;20374;-58
2022/08/23 00:56:45;;;;;;;8.77;6.20;;;19.10;99.90;;;;;;5073710;28;20840;-58
2022/08/23 00:59:12;;;;;;;8.90;5.33;;;19.10;99.90;;;;;;5074129;28;20299;-57
2022/08/23 01:01:39;;;;;;;10.27;5.67;;;19.00;99.90;;;;;;5073915;28;20633;-58
2022/08/23 01:04:06;;;;;;;9.87;5.20;;;18.90;99.90;;;;;;5074112;28;20233;-58
2022/08/23 01:06:38;;;;;;;7.20;5.30;;;18.90;99.90;;;;;;5073761;28;20591;-58
2022/08/23 01:09:08;;;;;;;9.17;5.83;;;18.90;99.90;;;;;;5073807;28;20210;-58
2022/08/23 01:11:39;;;;;;;10.53;5.50;;;18.80;99.90;;;;;;5073842;28;20205;-58
2022/08/23 01:14:12;;;;;;;6.73;4.83;;;18.80;99.90;;;;;;5073699;28;20225;-58
2022/08/23 01:16:45;;;;;;;11.00;5.87;;;18.70;99.90;;;;;;5073567;28;20205;-57
2022/08/23 01:19:17;;;;;;;10.70;5.40;;;18.70;99.90;;;;;;5073782;28;20220;-56
2022/08/23 01:21:51;;;;;;;9.20;5.10;;;18.70;99.90;;;;;;5073501;28;20216;-58
2022/08/23 01:24:20;;;;;;;8.77;5.40;;;18.60;99.90;;;;;;5073569;28;20737;-58
2022/08/23 01:26:47;;;;;;;9.87;5.20;;;18.60;99.90;;;;;;5073388;28;20239;-58
2022/08/23 01:29:15;;;;;;;9.57;4.97;;;18.50;99.90;;;;;;5073682;28;20213;-58
2022/08/23 01:31:42;;;;;;;6.30;4.63;;;18.50;1.00;;;;;;5073525;28;20209;-58
2022/08/23 01:34:12;;;;;;;7.30;4.57;;;18.40;1.00;;;;;;5073437;28;20308;-57
2022/08/23 01:36:39;;;;;;;6.23;4.73;;;18.40;1.00;;;;;;5073236;28;20240;-58
2022/08/23 01:39:07;;;;;;;10.47;5.33;;;18.30;1.00;;;;;;5073204;28;20278;-58
2022/08/23 01:41:37;;;;;;;7.03;4.50;;;18.30;1.00;;;;;;5073458;28;20233;-58
2022/08/23 01:44:05;;;;;;;6.70;4.80;;;18.20;1.00;;;;;;5072993;28;20260;-58
2022/08/23 01:46:32;;;;;;;8.17;4.83;;;18.20;1.00;;;;;;5073013;28;20751;-58
2022/08/23 01:48:58;;;;;;;4.97;4.40;;;18.20;1.00;;;;;;5073093;28;20254;-58
2022/08/23 01:51:25;;;;;;;5.90;4.77;;;18.10;1.00;;;;;;5072993;28;20278;-58
2022/08/23 01:53:52;;;;;;;10.97;4.53;;;18.10;1.00;;;;;;5072870;28;20727;-58
2022/08/23 01:56:20;;;;;;;7.37;4.80;;;18.10;1.00;;;;;;5073130;28;20586;-58
2022/08/23 01:58:49;;;;;;;7.80;4.70;;;18.10;1.00;;;;;;5072906;28;20215;-58
2022/08/23 02:01:17;;;;;;;4.93;4.17;;;18.00;1.00;;;;;;5072765;28;20250;-57
2022/08/23 02:03:44;;;;;;;8.63;4.17;;;18.00;1.00;;;;;;5072786;28;20601;-56
2022/08/23 02:06:12;;;;;;;5.80;4.30;;;18.00;1.00;;;;;;5072498;28;20209;-55
2022/08/23 02:11:24;;;;;;;6.30;4.13;;;18.00;1.00;;;;;;5072723;28;20196;-51
2022/08/23 02:13:55;;;;;;;5.57;4.10;;;18.00;1.00;;;;;;5072549;28;20278;-53
2022/08/23 02:16:23;;;;;;;6.80;4.30;;;18.00;99.90;;;;;;5072410;28;20733;-53
2022/08/23 02:18:50;;;;;;;6.73;3.80;;;18.00;99.90;;;;;;5072353;28;20209;-57
2022/08/23 02:21:18;;;;;;;5.17;3.70;;;18.00;99.90;;;;;;5072150;28;20212;-57
2022/08/23 02:23:44;;;;;;;5.27;4.07;;;18.10;99.90;;;;;;5072333;28;20229;-52
2022/08/23 02:26:11;;;;;;;4.87;3.97;;;18.10;99.90;;;;;;5072352;28;20201;-53
2022/08/23 02:28:38;;;;;;;6.57;3.57;;;18.10;99.90;;;;;;5072279;28;20733;-56
2022/08/23 02:31:06;;;;;;;5.63;3.77;;;18.10;99.90;;;;;;5072105;28;20204;-52
2022/08/23 02:33:33;;;;;;;5.47;3.53;;;18.10;99.90;;;;;;5072442;28;20281;-52
2022/08/23 02:36:00;;;;;;;4.63;3.57;;;18.10;99.90;;;;;;5071867;28;20679;-56
2022/08/23 02:38:27;;;;;;;4.47;3.40;;;18.10;99.90;;;;;;5072340;28;20303;-54
2022/08/23 02:40:53;;;;;;;5.13;3.30;;;18.10;99.90;;;;;;5072196;28;20209;-56
2022/08/23 02:43:20;;;;;;;4.93;3.60;;;18.10;99.90;;;;;;5071804;28;20232;-55
2022/08/23 02:45:46;;;;;;;3.63;2.70;;;18.10;99.90;;;;;;5072025;28;20278;-57
2022/08/23 02:48:14;;;;;;;4.37;3.30;;;18.10;99.90;;;;;;5071962;28;20204;-56
2022/08/23 02:50:41;;;;;;;3.50;3.10;;;18.20;99.90;;;;;;5071762;28;20200;-52
2022/08/23 02:53:08;;;;;;;7.43;3.40;;;18.20;99.90;;;;;;5072146;28;20231;-58
2022/08/23 02:55:34;;;;;;;3.93;3.17;;;18.30;99.90;;;;;;5072402;28;20281;-52
2022/08/23 02:58:01;;;;;;;3.53;2.73;;;18.30;99.90;;;;;;5071872;28;20200;-53
2022/08/23 03:00:29;;;;;;;5.37;3.03;;;18.50;99.90;;;;;;5071953;28;20247;-57
2022/08/23 03:02:56;;;;;;;4.43;2.87;;;18.50;99.90;;;;;;5071924;28;20244;-57
2022/08/23 03:05:24;;;;;;;5.83;3.00;;;18.50;99.90;;;;;;5071687;28;20862;-57
2022/08/23 03:07:50;;;;;;;3.57;2.73;;;18.60;99.90;;;;;;5071636;28;20262;-57
2022/08/23 03:10:17;;;;;;;4.50;3.00;;;18.60;99.90;;;;;;5071830;28;20215;-57
2022/08/23 03:12:44;;;;;;;4.57;2.97;;;18.60;99.90;;;;;;5071556;28;20229;-57
2022/08/23 03:15:11;;;;;;;3.23;2.90;;;18.60;99.90;;;;;;5072030;28;20278;-57
2022/08/23 03:17:38;;;;;;;3.33;2.83;;;18.60;99.90;;;;;;5071139;28;20304;-56
2022/08/23 03:20:06;;;;;;;4.40;3.00;;;18.60;99.90;;;;;;5071487;28;20213;-56
2022/08/23 03:22:35;;;;;;;6.80;2.90;;;18.60;99.90;;;;;;5071476;28;20282;-57
2022/08/23 03:25:01;;;;;;;3.80;2.80;;;18.60;99.90;;;;;;5071689;28;20204;-57
2022/08/23 03:27:30;;;;;;;5.10;2.90;;;18.60;99.90;;;;;;5071346;28;20205;-57
2022/08/23 03:29:57;;;;;;;5.40;2.77;;;18.60;99.90;;;;;;5071861;28;20300;-57
2022/08/23 03:32:23;;;;;;;5.30;3.40;;;18.60;99.90;;;;;;5072419;28;20278;-57
2022/08/23 03:34:50;;;;;;;3.70;2.57;;;18.60;99.90;;;;;;5075728;28;20258;-57
2022/08/23 03:37:17;;;;;;;5.87;3.10;;;18.60;99.90;;;;;;5075496;28;20209;-57
2022/08/23 03:39:44;;;;;;;2.97;2.50;;;18.70;99.90;;;;;;5075527;28;20200;-57
2022/08/23 03:42:11;;;;;;;4.27;2.73;;;18.70;99.90;;;;;;5075646;28;20281;-57
2022/08/23 03:44:38;;;;;;;4.43;2.73;;;18.70;99.90;;;;;;5075662;28;20672;-57
2022/08/23 03:47:05;;;;;;;3.73;2.23;;;18.70;99.90;;;;;;5075303;28;20671;-57
2022/08/23 03:49:32;;;;;;;3.83;2.30;;;18.70;99.90;;;;;;5075396;28;20671;-55
2022/08/23 03:52:00;;;;;;;3.10;2.30;;;18.80;99.90;;;;;;5075148;28;20685;-57
2022/08/23 03:54:28;;;;;;;4.80;2.70;;;18.80;99.90;;;;;;5075278;28;20291;-54
2022/08/23 03:56:59;;;;;;;4.63;2.27;;;18.90;99.90;;;;;;5075200;28;20205;-56
2022/08/23 03:59:27;;;;;;;4.03;2.40;;;18.90;99.90;;;;;;5075412;28;20205;-57
2022/08/23 04:01:54;;;;;;;4.70;2.50;;;18.90;99.90;;;;;;5075105;28;20205;-54
2022/08/23 04:04:21;;;;;;;3.47;2.53;;;18.90;99.90;;;;;;5074962;28;20229;-57
2022/08/23 04:06:48;;;;;;;3.97;2.47;;;18.90;99.90;;;;;;5074695;28;20259;-56
2022/08/23 04:09:16;;;;;;;5.77;2.90;;;18.90;99.90;;;;;;5075162;28;20287;-57
2022/08/23 04:11:44;;;;;;;5.17;2.70;;;18.90;99.90;;;;;;5075207;28;20205;-56
2022/08/23 04:14:12;;;;;;;4.70;2.50;;;18.90;99.90;;;;;;5074845;28;20233;-54
2022/08/23 04:16:39;;;;;;;5.23;2.43;;;18.90;99.90;;;;;;5074459;28;20297;-56
2022/08/23 04:19:07;;;;;;;4.40;2.63;;;18.80;99.90;;;;;;5074737;28;20201;-57
2022/08/23 04:21:35;;;;;;;3.93;2.23;;;18.80;99.90;;;;;;5074726;28;20219;-54
2022/08/23 04:24:02;;;;;;;4.13;2.37;;;18.80;99.90;;;;;;5074763;28;20225;-57
2022/08/23 04:26:29;;;;;;;4.80;2.33;;;18.80;99.90;;;;;;5074731;28;20209;-54
2022/08/23 04:28:56;;;;;;;4.83;2.70;;;18.80;99.90;;;;;;5074584;28;20736;-55
2022/08/23 04:31:25;;;;;;;3.40;2.43;;;18.70;99.90;;;;;;5074652;28;20205;-57
2022/08/23 04:33:52;;;;;;;7.10;2.80;;;18.70;99.90;;;;;;5074421;28;20286;-55
2022/08/23 04:36:19;;;;;;;6.23;2.50;;;18.70;99.90;;;;;;5074548;28;20621;-55
2022/08/23 04:38:45;;;;;;;7.20;2.53;;;18.60;99.90;;;;;;5074651;28;20208;-57
2022/08/23 04:43:56;;;;;;;4.97;2.40;;;18.60;99.90;;;;;;5073604;28;20738;-57
2022/08/23 04:46:24;;;;;;;6.13;2.30;;;18.60;99.90;;;;;;5074183;28;20201;-58
2022/08/23 04:48:52;;;;;;;4.40;3.10;;;18.50;99.90;;;;;;5074422;28;20209;-57
2022/08/23 04:51:21;;;;;;;5.97;2.40;;;18.40;99.90;;;;;;5074256;28;20231;-57
2022/08/23 04:53:48;;;;;;;4.20;2.37;;;18.40;99.90;;;;;;5074125;28;20737;-57
2022/08/23 04:56:14;;;;;;;4.80;2.53;;;18.30;99.90;;;;;;5073895;28;20213;-57
2022/08/23 04:58:41;;;;;;;5.27;2.60;;;18.30;99.90;;;;;;5074052;28;20671;-57
2022/08/23 05:01:09;;;;;;;3.90;2.47;;;18.30;99.90;;;;;;5073963;28;20211;-58
2022/08/23 05:03:38;;;;;;;6.53;2.40;;;18.30;99.90;;;;;;5074160;28;20239;-58
2022/08/23 05:06:05;;;;;;;6.23;2.70;;;18.20;99.90;;;;;;5073910;28;20626;-58
2022/08/23 05:08:33;;;;;;;4.63;2.90;;;18.20;99.90;;;;;;5074099;28;20262;-57
2022/08/23 05:11:01;;;;;;;3.80;2.83;;;18.20;99.90;;;;;;5073967;28;20209;-56
2022/08/23 05:13:29;;;;;;;4.00;2.50;;;18.30;99.90;;;;;;5073840;28;20221;-57
2022/08/23 05:15:56;;;;;;;5.30;2.10;;;18.30;99.90;;;;;;5073514;28;20211;-58
2022/08/23 05:18:22;;;;;;;6.70;2.60;;;18.30;99.90;;;;;;5073975;28;20255;-58
2022/08/23 05:20:51;;;;;;;2.67;2.10;;;18.30;99.90;;;;;;5073546;28;20224;-59
2022/08/23 05:23:17;;;;;;;3.33;2.70;;;18.40;99.90;;;;;;5073352;28;20271;-59
2022/08/23 05:25:51;;;;;;;5.60;2.30;;;18.50;99.90;;;;;;5073662;28;20209;-58
2022/08/23 05:28:20;;;;;;;4.90;2.50;;;18.50;99.90;;;;;;5073553;28;20205;-59
2022/08/23 05:30:55;;;;;;;4.10;2.37;;;18.60;99.90;;;;;;5073758;28;20243;-58
2022/08/23 05:33:21;;;;;;;3.97;2.17;;;18.70;99.90;;;;;;5073562;28;20220;-59
2022/08/23 05:35:49;;;;;;;4.67;2.20;;;18.70;99.90;;;;;;5073239;28;20733;-58
2022/08/23 05:38:16;;;;;;;3.93;2.33;;;18.80;99.90;;;;;;5073182;28;20208;-59
2022/08/23 05:40:43;;;;;;;4.13;2.20;;;18.90;99.90;;;;;;5073412;28;20205;-58
2022/08/23 05:43:10;;;;;;;5.03;2.30;;;18.90;99.90;;;;;;5072978;28;20229;-58
2022/08/23 05:45:37;;;;;;;3.60;2.40;;;19.00;99.90;;;;;;5073481;28;20586;-59
2022/08/23 05:48:04;;;;;;;3.67;2.00;;;19.00;99.90;;;;;;5073101;28;20208;-56
2022/08/23 05:50:31;;;;;;;3.77;2.40;;;19.00;99.90;;;;;;5073169;28;20251;-58
2022/08/23 05:52:59;;;;;;;3.63;2.40;;;19.10;99.90;;;;;;5072957;28;20221;-58
2022/08/23 05:55:25;;;;;;;2.90;2.33;;;19.10;99.90;;;;;;5071994;28;20254;-56
2022/08/23 05:57:52;;;;;;;7.00;2.50;;;19.10;99.90;;;;;;5072704;28;20208;-58
2022/08/23 06:00:19;;;;;;;6.03;2.40;;;19.20;99.90;;;;;;5073006;28;20204;-54
2022/08/23 06:02:46;;;;;;;6.50;2.63;;;19.20;99.90;;;;;;5072693;28;20605;-53
2022/08/23 06:05:13;;;;;;;3.90;2.43;;;19.30;99.90;;;;;;5072911;28;20215;-54
2022/08/23 06:07:40;;;;;;;4.23;2.17;;;19.30;99.90;;;;;;5072306;28;20584;-56
2022/08/23 06:10:09;;;;;;;3.90;2.10;;;19.40;99.90;;;;;;5073076;28;20205;-58
2022/08/23 06:12:36;;;;;;;2.40;2.17;;;19.50;99.90;;;;;;5072625;28;20232;-58
2022/08/23 06:15:03;;;;;;;4.10;2.17;;;19.50;99.90;;;;;;5072752;28;20213;-56
2022/08/23 06:17:30;;;;;;;3.53;2.20;;;19.60;99.90;;;;;;5072356;28;20621;-57
2022/08/23 06:19:57;;;;;;;2.20;2.00;;;19.70;99.90;;;;;;5072321;28;20278;-59
2022/08/23 06:22:24;;;;;;;4.87;2.47;;;19.80;99.90;;;;;;5072391;28;20228;-56
2022/08/23 06:24:50;;;;;;;3.70;2.33;;;19.90;99.90;;;;;;5072711;28;20207;-55
2022/08/23 06:27:18;;;;;;;3.10;2.07;;;19.90;99.90;;;;;;5072534;28;20730;-55
2022/08/23 06:29:45;;;;;;;3.63;2.07;;;20.00;99.90;;;;;;5072238;28;20266;-59
2022/08/23 06:32:12;;;;;;;2.40;2.20;;;20.00;99.90;;;;;;5072346;28;20620;-56
2022/08/23 06:34:38;;;;;;;2.93;2.20;;;20.10;99.90;;;;;;5072276;28;20266;-56
2022/08/23 06:37:07;;;;;;;3.70;2.13;;;20.20;99.90;;;;;;5072054;28;20266;-59
2022/08/23 06:39:34;;;;;;;8.80;2.40;;;20.30;99.90;;;;;;5072100;28;20258;-56
2022/08/23 06:42:03;;;;;;;3.33;1.90;;;20.30;99.90;;;;;;5072314;28;20209;-58
2022/08/23 06:44:31;;;;;;;4.20;2.30;;;20.40;99.90;;;;;;5072082;28;20248;-59
2022/08/23 06:46:58;;;;;;;4.43;2.10;;;20.50;99.90;;;;;;5071995;28;20201;-56
2022/08/23 06:49:26;;;;;;;4.13;2.23;;;20.50;99.90;;;;;;5072100;28;20201;-57
2022/08/23 06:51:55;;;;;;;3.67;2.03;;;20.60;99.90;;;;;;5072372;28;20234;-55
2022/08/23 06:54:24;;;;;;;3.40;2.27;;;20.70;99.90;;;;;;5072183;28;20602;-58
2022/08/23 06:56:52;;;;;;;4.90;2.07;;;20.80;99.90;;;;;;5071795;28;20208;-59
2022/08/23 06:59:19;;;;;;;3.10;2.00;;;20.80;99.90;;;;;;5072049;28;20270;-59
2022/08/23 07:01:51;;;;;;;2.67;1.93;;;20.90;99.90;;;;;;5072022;28;20290;-58
2022/08/23 07:04:20;;;;;;;5.23;2.23;;;21.00;99.90;;;;;;5072062;28;20233;-59
2022/08/23 07:06:47;;;;;;;5.13;1.83;;;21.10;99.90;;;;;;5071795;28;20205;-58
2022/08/23 07:09:14;;;;;;;5.37;1.90;;;21.20;99.90;;;;;;5071952;28;20208;-59
2022/08/23 07:11:41;;;;;;;3.67;1.90;;;21.20;99.90;;;;;;5071967;28;20613;-56
2022/08/23 07:14:11;;;;;;;2.87;2.00;;;21.30;99.90;;;;;;5071883;28;20794;-58
2022/08/23 07:16:40;;;;;;;4.37;2.03;;;21.40;99.90;;;;;;5071816;28;20594;-59
2022/08/23 07:19:08;;;;;;;5.23;2.43;;;21.50;99.90;;;;;;5071844;28;20268;-59
2022/08/23 07:21:35;;;;;;;3.67;2.17;;;21.50;99.90;;;;;;5071663;28;20571;-59
2022/08/23 07:24:02;;;;;;;10.20;2.67;;;21.70;99.90;;;;;;5071917;28;20652;-59
2022/08/23 07:26:30;;;;;;;5.23;2.20;;;21.70;99.90;;;;;;5071566;28;20213;-58
2022/08/23 07:28:57;;;;;;;4.70;2.60;;;21.90;99.90;;;;;;5071638;28;20206;-59
2022/08/23 07:31:26;;;;;;;3.73;2.20;;;22.00;99.90;;;;;;5071679;28;20659;-59
2022/08/23 07:33:55;;;;;;;5.97;2.30;;;22.00;99.90;;;;;;5071778;28;20240;-59
2022/08/23 07:36:25;;;;;;;6.13;2.30;;;22.10;99.90;;;;;;5071624;28;20213;-59
2022/08/23 07:38:52;;;;;;;4.40;2.37;;;22.30;99.90;;;;;;5071612;28;20659;-55
2022/08/23 07:41:20;;;;;;;4.90;2.20;;;22.40;99.90;;;;;;5071701;28;20204;-58
2022/08/23 07:43:47;;;;;;;4.73;2.30;;;22.50;99.90;;;;;;5071344;28;20232;-59
2022/08/23 07:46:14;;;;;;;5.43;2.20;;;22.60;99.90;;;;;;5071431;28;20205;-59
2022/08/23 07:48:40;;;;;;;6.80;2.43;;;22.60;99.90;;;;;;5071458;28;20632;-59
2022/08/23 07:51:10;;;;;;;6.73;2.10;;;22.80;99.90;;;;;;5071373;28;20266;-59
2022/08/23 07:53:38;;;;;;;4.30;2.40;;;23.00;99.90;;;;;;5071410;28;20635;-57
2022/08/23 07:56:06;;;;;;;4.00;2.27;;;23.20;99.90;;;;;;5071220;28;20274;-59
2022/08/23 07:58:32;;;;;;;3.53;2.30;;;23.40;99.90;;;;;;5071553;28;20259;-59
2022/08/23 08:01:10;;;;;;;4.20;2.40;;;23.40;99.90;;;;;;5071619;28;20282;-59
2022/08/23 08:03:37;;;;;;;4.10;2.37;;;23.50;99.90;;;;;;5071410;28;20229;-59
2022/08/23 08:06:08;;;;;;;5.13;2.50;;;23.60;99.90;;;;;;5071126;28;20255;-59
2022/08/23 08:08:34;;;;;;;3.70;2.37;;;23.70;99.90;;;;;;5071031;28;20675;-59
2022/08/23 08:11:02;;;;;;;3.20;2.43;;;23.80;99.90;;;;;;5071502;28;20208;-58
2022/08/23 08:13:30;;;;;;;5.33;2.73;;;23.90;99.90;;;;;;5071275;28;20225;-59
2022/08/23 08:15:57;;;;;;;7.07;2.37;;;24.10;99.90;;;;;;5071240;28;20282;-59
2022/08/23 08:18:24;;;;;;;6.30;2.83;;;24.20;99.90;;;;;;5072288;28;20295;-59
2022/08/23 08:20:51;;;;;;;3.83;2.50;;;24.20;99.90;;;;;;5074774;28;20213;-60
2022/08/23 08:23:17;;;;;;;7.03;2.80;;;24.20;99.90;;;;;;5074400;28;20797;-61
2022/08/23 08:25:44;;;;;;;7.67;3.27;;;24.20;99.90;;;;;;5075039;28;20227;-59
2022/08/23 08:28:12;;;;;;;5.33;2.50;;;24.40;99.90;;;;;;5074518;28;20254;-59
2022/08/23 08:30:39;;;;;;;5.50;3.00;;;24.60;99.90;;;;;;5074966;28;20633;-58
2022/08/23 08:33:05;;;;;;;7.13;3.00;;;24.60;99.90;;;;;;5074630;28;20398;-59
2022/08/23 08:35:32;;;;;;;5.40;3.10;;;24.80;99.90;;;;;;5074654;28;20205;-59
2022/08/23 08:37:59;;;;;;;5.60;2.73;;;24.90;99.90;;;;;;5074539;28;20580;-64
2022/08/23 08:40:32;;;;;;;6.50;2.73;;;24.80;99.90;;;;;;5074774;28;20204;-64
2022/08/23 08:43:12;;;;;;;5.00;2.90;;;24.80;99.90;;;;;;5074570;28;20233;-64
2022/08/23 08:45:51;;;;;;;3.77;2.77;;;24.90;99.90;;;;;;5074672;28;20201;-64
2022/08/23 08:48:23;;;;;;;4.57;2.70;;;25.00;99.90;;;;;;5074331;28;20224;-64
2022/08/23 08:50:55;;;;;;;5.80;2.60;;;25.20;99.90;;;;;;5074633;28;20208;-64
2022/08/23 08:53:25;;;;;;;8.87;2.70;;;25.40;99.90;;;;;;5074435;28;20229;-64
2022/08/23 08:55:57;;;;;;;6.83;3.07;;;25.50;99.90;;;;;;5074450;28;20266;-64
2022/08/23 08:58:29;;;;;;;7.03;3.10;;;25.60;99.90;;;;;;5074242;28;20255;-64
2022/08/23 09:00:58;;;;;;;7.23;3.17;;;25.50;99.90;;;;;;5074535;28;20209;-64
2022/08/23 09:03:32;;;;;;;5.20;2.87;;;25.60;99.90;;;;;;5073964;28;20229;-64
2022/08/23 09:06:03;;;;;;;7.93;2.90;;;25.80;99.90;;;;;;5073912;28;20208;-64
2022/08/23 09:08:43;;;;;;;4.80;2.90;;;25.70;99.90;;;;;;5074122;28;20205;-64
2022/08/23 09:11:19;;;;;;;5.47;3.00;;;25.90;99.90;;;;;;5073972;28;20205;-64
2022/08/23 09:14:25;;;;;;;3.67;2.83;;;26.00;99.90;;;;;;5074107;28;20229;-64
2022/08/23 09:16:57;;;;;;;4.73;3.17;;;26.10;99.90;;;;;;5073771;28;20204;-64
2022/08/23 09:19:24;;;;;;;4.77;2.60;;;26.10;99.90;;;;;;5073544;28;20221;-64
2022/08/23 09:21:56;;;;;;;5.97;3.00;;;26.20;99.90;;;;;;5073863;28;20263;-64
2022/08/23 09:24:23;;;;;;;4.93;3.23;;;26.30;99.90;;;;;;5073743;28;20844;-64
2022/08/23 09:26:52;;;;;;;7.27;2.90;;;26.30;99.90;;;;;;5073889;28;20232;-64
2022/08/23 09:29:23;;;;;;;5.00;2.80;;;26.30;99.90;;;;;;5073747;28;20729;-64
2022/08/23 09:31:52;;;;;;;6.17;2.90;;;26.40;99.90;;;;;;5073567;28;20212;-64
2022/08/23 09:34:23;;;;;;;6.27;3.00;;;26.50;99.90;;;;;;5073982;28;20627;-64
2022/08/23 09:36:50;;;;;;;5.20;2.80;;;26.50;99.90;;;;;;5073219;28;20235;-64
2022/08/23 09:39:30;;;;;;;4.53;2.80;;;26.60;99.90;;;;;;5074038;28;20204;-64
2022/08/23 09:41:57;;;;;;;3.00;2.60;;;26.40;99.90;;;;;;5073893;28;20232;-64
2022/08/23 09:44:35;;;;;;;5.53;3.00;;;26.60;99.90;;;;;;5073323;28;20324;-64
2022/08/23 09:47:08;;;;;;;7.93;2.90;;;26.70;99.90;;;;;;5065640;28;21008;-65
2022/08/23 09:49:36;;;;;;;6.27;3.30;;;26.50;99.90;;;;;;5068458;28;20209;-63
2022/08/23 09:52:17;;;;;;;13.53;3.63;;;26.70;99.90;;;;;;5070624;28;20254;-64
2022/08/23 09:54:44;;;;;;;8.00;3.10;;;26.80;99.90;;;;;;5071705;28;20204;-64
2022/08/23 09:57:12;;;;;;;6.87;3.07;;;26.90;99.90;;;;;;5072572;28;20205;-63
2022/08/23 09:59:42;;;;;;;6.53;3.10;;;26.90;99.90;;;;;;5072498;28;20208;-64
2022/08/23 10:02:17;;;;;;;4.13;2.57;;;27.10;99.90;;;;;;5072188;28;20212;-65
2022/08/23 10:04:47;;;;;;;5.97;2.97;;;27.30;99.90;;;;;;5058435;28;20228;-65
2022/08/23 10:07:37;;;;;;;4.60;3.20;;;27.30;99.90;;;;;;5055938;28;20213;-63
2022/08/23 10:10:22;;;;;;;4.13;2.80;;;27.50;99.90;;;;;;5056941;28;20219;-62
2022/08/23 10:12:48;;;;;;;4.10;3.13;;;27.50;99.90;;;;;;5065957;28;20221;-64
2022/08/23 10:15:16;;;;;;;3.67;2.70;;;27.40;99.90;;;;;;5064379;28;20209;-64
2022/08/23 10:17:49;;;;;;;10.20;3.50;;;27.40;99.90;;;;;;5067428;28;20202;-65
2022/08/23 10:20:29;;;;;;;6.77;3.23;;;27.50;99.90;;;;;;5051769;28;20692;-63
2022/08/23 10:23:02;;;;;;;9.90;3.33;;;27.60;99.90;;;;;;5052473;28;20586;-63
2022/08/23 10:25:38;;;;;;;8.67;3.23;;;27.60;99.90;;;;;;5058637;28;20231;-63
2022/08/23 10:31:02;;;;;;;5.37;2.87;;;27.60;99.90;;;;;;5072121;28;20204;-61
2022/08/23 10:33:37;;;;;;;5.60;3.40;;;27.80;99.90;;;;;;5071791;28;20221;-62
2022/08/23 10:36:14;;;;;;;5.37;3.17;;;28.00;99.90;;;;;;5071713;28;20212;-62
2022/08/23 10:38:45;;;;;;;4.87;3.03;;;28.00;99.90;;;;;;5070200;28;20236;-62
2022/08/23 10:41:38;;;;;;;9.67;3.13;;;28.00;99.90;;;;;;5069939;28;20255;-62
2022/08/23 10:44:25;;;;;;;8.83;3.13;;;28.20;99.90;;;;;;5063656;28;20293;-63
2022/08/23 10:47:08;;;;;;;7.80;3.00;;;28.20;99.90;;;;;;5060579;28;20202;-61
2022/08/23 10:49:38;;;;;;;6.90;2.97;;;28.20;99.90;;;;;;5056048;28;20290;-62
2022/08/23 10:52:10;;;;;;;5.90;3.03;;;28.20;99.90;;;;;;5065885;28;20260;-64
2022/08/23 10:54:47;;;;;;;7.03;2.97;;;28.30;99.90;;;;;;5064708;28;20675;-65
2022/08/23 10:57:17;;;;;;;5.33;3.07;;;28.30;99.90;;;;;;5058111;28;20745;-64
2022/08/23 10:59:46;;;;;;;6.80;3.00;;;28.40;99.90;;;;;;5051432;28;20616;-62
2022/08/23 11:02:22;;;;;;;5.57;2.90;;;28.20;99.90;;;;;;5069507;28;20212;-66
2022/08/23 11:04:55;;;;;;;6.73;3.23;;;28.20;99.90;;;;;;5070088;28;20699;-62
2022/08/23 11:07:28;;;;;;;7.40;3.23;;;28.20;99.90;;;;;;5070620;28;20250;-63
2022/08/23 11:10:07;;;;;;;5.33;3.17;;;28.30;99.90;;;;;;5069750;28;20242;-61
2022/08/23 11:12:36;;;;;;;4.63;2.70;;;28.50;99.90;;;;;;5070433;28;20236;-61
2022/08/23 11:15:21;;;;;;;6.57;3.13;;;28.70;99.90;;;;;;5070904;28;20744;-63
2022/08/23 11:18:01;;;;;;;8.40;3.53;;;28.70;99.90;;;;;;5070302;28;20303;-63
2022/08/23 11:21:08;;;;;;;6.33;2.80;;;28.70;99.90;;;;;;5068228;28;20303;-61
2022/08/23 11:23:49;;;;;;;5.90;2.80;;;28.80;99.90;;;;;;5063140;28;20670;-63
2022/08/23 11:26:50;;;;;;;7.27;3.30;;;28.90;99.90;;;;;;5070643;28;20248;-63
2022/08/23 11:29:28;;;;;;;5.93;3.23;;;29.10;99.90;;;;;;5058140;28;20726;-63
2022/08/23 11:32:01;;;;;;;4.37;2.77;;;29.00;99.90;;;;;;5070432;28;20220;-63
2022/08/23 11:34:33;;;;;;;7.97;3.20;;;28.80;99.90;;;;;;5064077;28;20258;-64
2022/08/23 11:37:30;;;;;;;4.40;2.73;;;28.70;99.90;;;;;;5056949;28;20243;-63
2022/08/23 11:40:10;;;;;;;7.30;2.93;;;28.70;99.90;;;;;;5051911;28;20267;-63
2022/08/23 11:42:50;;;;;;;8.77;3.00;;;28.80;99.90;;;;;;5050737;28;20221;-64
2022/08/23 11:45:38;;;;;;;6.17;2.90;;;28.80;99.90;;;;;;5050671;28;20312;-63
2022/08/23 11:48:15;;;;;;;8.57;3.30;;;28.90;99.90;;;;;;5066091;28;20205;-63
2022/08/23 11:51:01;;;;;;;6.03;2.77;;;28.90;99.90;;;;;;5069631;28;20625;-62
2022/08/23 11:53:55;;;;;;;6.00;3.00;;;28.80;99.90;;;;;;5061616;28;20236;-63
2022/08/23 11:56:40;;;;;;;8.00;3.10;;;28.90;99.90;;;;;;5069038;28;20238;-63
2022/08/23 11:59:33;;;;;;;5.70;2.60;;;28.90;99.90;;;;;;5062265;28;20224;-59
2022/08/23 12:02:40;;;;;;;5.80;2.77;;;28.90;99.90;;;;;;5060417;28;20198;-59
2022/08/23 12:05:21;;;;;;;5.55;2.90;;;29.00;99.90;;;;;;5053885;28;20312;-58
2022/08/23 12:07:53;;;;;;;7.80;2.80;;;29.10;99.90;;;;;;5054389;28;20633;-60
2022/08/23 12:10:45;;;;;;;4.73;2.50;;;29.20;99.90;;;;;;5054181;28;20206;-59
2022/08/23 12:13:56;;;;;;;5.60;2.88;;;29.40;99.90;;;;;;5054142;28;20275;-61
2022/08/23 12:16:33;;;;;;;5.90;2.40;;;29.30;99.90;;;;;;5068814;28;20209;-62
2022/08/23 12:19:05;;;;;;;3.60;2.40;;;29.30;99.90;;;;;;5073519;28;20212;-63
2022/08/23 12:21:40;;;;;;;5.20;2.60;;;29.30;99.90;;;;;;5072711;28;20299;-60
2022/08/23 12:24:15;;;;;;;9.70;2.60;;;29.10;99.90;;;;;;5074349;28;20322;-64
2022/08/23 12:26:49;;;;;;;6.90;2.60;;;29.20;99.90;;;;;;5073984;28;20811;-62
2022/08/23 12:29:26;;;;;;;6.77;2.70;;;29.10;99.90;;;;;;5074226;28;20291;-61
2022/08/23 12:31:59;;;;;;;5.07;2.40;;;29.30;99.90;;;;;;5060181;28;20629;-61
2022/08/23 12:34:33;;;;;;;3.50;2.40;;;29.40;99.90;;;;;;5054043;28;20230;-60
2022/08/23 12:37:09;;;;;;;5.80;2.60;;;29.50;99.90;;;;;;5052692;28;20809;-60
2022/08/23 12:39:39;;;;;;;3.47;2.40;;;29.60;99.90;;;;;;5056562;28;20297;-59
2022/08/23 12:42:12;;;;;;;5.85;2.28;;;29.40;99.90;;;;;;5053560;28;20288;-61
2022/08/23 12:44:40;;;;;;;3.67;2.27;;;29.70;99.90;;;;;;5053733;28;20723;-59
2022/08/23 12:47:15;;;;;;;3.08;2.17;;;29.60;99.90;;;;;;5053332;28;20202;-60
2022/08/23 12:49:53;;;;;;;4.00;2.30;;;29.70;99.90;;;;;;5053451;28;20227;-60
2022/08/23 12:52:24;;;;;;;10.25;2.85;;;29.70;99.90;;;;;;5053698;28;20213;-60
2022/08/23 12:54:53;;;;;;;6.43;2.30;;;29.80;99.90;;;;;;5053537;28;20554;-60
2022/08/23 12:57:33;;;;;;;2.95;2.10;;;29.80;99.90;;;;;;5052507;28;20264;-60
2022/08/23 13:00:16;;;;;;;3.42;2.15;;;29.90;99.90;;;;;;5053616;28;20229;-59
2022/08/23 13:02:48;;;;;;;5.15;2.25;;;29.90;99.90;;;;;;5057322;28;20227;-60
2022/08/23 13:05:22;;;;;;;6.57;2.20;;;29.90;99.90;;;;;;5072331;28;20224;-60
2022/08/23 13:07:50;;;;;;;4.75;2.17;;;30.00;99.90;;;;;;5073315;28;20215;-59
2022/08/23 13:10:17;;;;;;;3.92;2.30;;;29.90;99.90;;;;;;5070931;28;20204;-58
2022/08/23 13:12:44;;;;;;;5.60;2.17;;;30.00;99.90;;;;;;5058035;28;20719;-57
2022/08/23 13:15:12;;;;;;;6.88;2.10;;;29.70;99.90;;;;;;5053401;28;20202;-58
2022/08/23 13:17:39;;;;;;;4.03;2.03;;;29.80;99.90;;;;;;5052854;28;20261;-58
2022/08/23 13:20:20;;;;;;;4.18;2.15;;;29.90;99.90;;;;;;5053195;28;20224;-58